Time;durP1;ratioP1;P1;durP2;ratioP2;P2;SDS_P1;SDS_P2;PMS_P1;PMS_P2;Temp;Humidity;BMP_temperature;BMP_pressure;BME280_temperature;BME280_humidity;BME280_pressure;Samples;Min_cycle;Max_cycle;Signal;HPM_P1;HPM_P2
2023/11/30 00:02:01;;;;;;;0.30;0.30;;;1.00;99.90;;;;;;5087262;28;20177;-73
2023/11/30 00:04:27;;;;;;;0.30;0.30;;;1.00;99.90;;;;;;5088483;28;20238;-73
2023/11/30 00:06:52;;;;;;;0.30;0.30;;;1.00;99.90;;;;;;5088966;28;20230;-73
2023/11/30 00:09:18;;;;;;;0.30;0.30;;;1.10;99.90;;;;;;5088362;28;20188;-73
2023/11/30 00:11:43;;;;;;;0.30;0.30;;;1.10;99.90;;;;;;5087306;28;20672;-72
2023/11/30 00:14:09;;;;;;;0.30;0.30;;;1.10;99.90;;;;;;5087077;28;20515;-73
2023/11/30 00:16:35;;;;;;;0.30;0.30;;;1.10;99.90;;;;;;5087202;28;20197;-74
2023/11/30 00:19:00;;;;;;;0.30;0.30;;;1.10;99.90;;;;;;5087933;28;20550;-73
2023/11/30 00:21:26;;;;;;;0.30;0.30;;;1.10;99.90;;;;;;5088839;28;20248;-73
2023/11/30 00:23:52;;;;;;;0.30;0.30;;;1.10;99.90;;;;;;5086452;28;20603;-73
2023/11/30 00:26:18;;;;;;;0.30;0.30;;;1.00;99.90;;;;;;5088379;28;20218;-74
2023/11/30 00:28:43;;;;;;;0.30;0.30;;;1.00;99.90;;;;;;5087820;28;20188;-73
2023/11/30 00:31:09;;;;;;;0.30;0.30;;;1.10;99.90;;;;;;5088037;28;20396;-73
2023/11/30 00:33:35;;;;;;;0.30;0.30;;;1.10;99.90;;;;;;5086617;28;20313;-73
2023/11/30 00:36:02;;;;;;;0.30;0.30;;;1.00;99.90;;;;;;5086895;28;20512;-73
2023/11/30 00:38:27;;;;;;;0.30;0.30;;;0.90;99.90;;;;;;5086486;28;20512;-73
2023/11/30 00:40:53;;;;;;;0.30;0.30;;;0.90;99.90;;;;;;5086786;28;20180;-73
2023/11/30 00:43:19;;;;;;;0.30;0.30;;;0.90;99.90;;;;;;5087580;28;20200;-73
2023/11/30 00:45:44;;;;;;;0.30;0.30;;;0.80;99.90;;;;;;5086638;28;20684;-73
2023/11/30 00:48:10;;;;;;;0.30;0.30;;;0.80;99.90;;;;;;5087920;28;20701;-73
2023/11/30 00:50:35;;;;;;;0.30;0.30;;;0.80;99.90;;;;;;5086711;28;20199;-73
2023/11/30 00:53:02;;;;;;;0.30;0.30;;;0.80;99.90;;;;;;5087697;28;20237;-73
2023/11/30 00:55:27;;;;;;;0.30;0.30;;;0.80;99.90;;;;;;5086526;28;20172;-73
2023/11/30 00:57:53;;;;;;;0.30;0.30;;;0.90;99.90;;;;;;5086774;28;20664;-73
2023/11/30 01:00:19;;;;;;;0.30;0.30;;;0.80;99.90;;;;;;5085812;28;20312;-74
2023/11/30 01:02:45;;;;;;;0.30;0.30;;;0.80;99.90;;;;;;5087467;28;20322;-73
2023/11/30 01:05:11;;;;;;;0.30;0.30;;;0.80;99.90;;;;;;5088165;28;20379;-73
2023/11/30 01:07:37;;;;;;;0.30;0.30;;;0.80;99.90;;;;;;5087786;28;20216;-73
2023/11/30 01:10:03;;;;;;;0.30;0.30;;;0.80;99.90;;;;;;5086141;28;20216;-73
2023/11/30 01:12:29;;;;;;;0.30;0.30;;;0.80;99.90;;;;;;5087361;28;20552;-73
2023/11/30 01:14:55;;;;;;;0.30;0.30;;;0.80;99.90;;;;;;5087348;28;20196;-73
2023/11/30 01:17:22;;;;;;;0.30;0.30;;;0.80;99.90;;;;;;5085800;28;20226;-72
2023/11/30 01:19:48;;;;;;;0.30;0.30;;;0.80;99.90;;;;;;5086966;28;20248;-73
2023/11/30 01:22:13;;;;;;;0.30;0.30;;;0.80;99.90;;;;;;5087103;28;20247;-73
2023/11/30 01:24:39;;;;;;;0.30;0.30;;;0.80;99.90;;;;;;5086974;28;20667;-73
2023/11/30 01:27:05;;;;;;;0.30;0.30;;;0.80;99.90;;;;;;5085848;28;20181;-73
2023/11/30 01:29:31;;;;;;;0.30;0.30;;;0.70;99.90;;;;;;5086901;28;20192;-74
2023/11/30 01:31:57;;;;;;;0.30;0.30;;;0.70;99.90;;;;;;5085455;28;20177;-73
2023/11/30 01:34:23;;;;;;;0.30;0.30;;;0.70;99.90;;;;;;5085482;28;20233;-73
2023/11/30 01:36:48;;;;;;;0.30;0.30;;;0.70;99.90;;;;;;5087169;28;20631;-73
2023/11/30 01:39:15;;;;;;;0.30;0.30;;;0.70;99.90;;;;;;5086805;28;20216;-73
2023/11/30 01:41:41;;;;;;;0.30;0.30;;;0.70;99.90;;;;;;5084709;28;20192;-73
2023/11/30 01:44:08;;;;;;;0.30;0.30;;;0.60;99.90;;;;;;5086657;28;20299;-73
2023/11/30 01:46:36;;;;;;;0.30;0.30;;;0.60;99.90;;;;;;5086801;28;20168;-72
2023/11/30 01:49:03;;;;;;;0.30;0.30;;;0.60;99.90;;;;;;5085064;28;20207;-73
2023/11/30 01:51:31;;;;;;;0.30;0.30;;;0.60;99.90;;;;;;5085288;28;20192;-72
2023/11/30 01:53:59;;;;;;;0.30;0.30;;;0.60;99.90;;;;;;5084780;28;20337;-73
2023/11/30 01:56:25;;;;;;;1.38;1.38;;;0.70;99.90;;;;;;5085211;28;20220;-73
2023/11/30 01:58:52;;;;;;;0.30;0.30;;;0.60;99.90;;;;;;5083639;28;20460;-73
2023/11/30 02:01:18;;;;;;;0.30;0.30;;;0.60;99.90;;;;;;5086558;28;20406;-73
2023/11/30 02:03:44;;;;;;;0.30;0.30;;;0.70;99.90;;;;;;5086204;28;20653;-73
2023/11/30 02:06:13;;;;;;;0.30;0.30;;;0.70;99.90;;;;;;5086428;28;20180;-73
2023/11/30 02:08:39;;;;;;;0.30;0.30;;;0.70;99.90;;;;;;5086368;28;20184;-73
2023/11/30 02:11:05;;;;;;;0.30;0.30;;;0.70;99.90;;;;;;5084897;28;20180;-73
2023/11/30 02:13:31;;;;;;;0.30;0.30;;;0.70;99.90;;;;;;5084603;28;20196;-72
2023/11/30 02:15:56;;;;;;;0.30;0.30;;;0.80;99.90;;;;;;5085946;28;20168;-73
2023/11/30 02:18:22;;;;;;;0.30;0.30;;;0.80;99.90;;;;;;5085688;28;20627;-73
2023/11/30 02:20:48;;;;;;;0.30;0.30;;;0.80;99.90;;;;;;5085014;28;20658;-74
2023/11/30 02:23:13;;;;;;;0.30;0.30;;;0.80;99.90;;;;;;5086300;28;20494;-74
2023/11/30 02:25:39;;;;;;;0.30;0.30;;;0.80;99.90;;;;;;5085051;28;20204;-73
2023/11/30 02:28:04;;;;;;;0.30;0.30;;;0.80;99.90;;;;;;5084669;28;20291;-73
2023/11/30 02:30:30;;;;;;;0.30;0.30;;;0.80;99.90;;;;;;5086376;28;20557;-73
2023/11/30 02:32:56;;;;;;;0.30;0.30;;;0.80;99.90;;;;;;5084092;28;20200;-74
2023/11/30 02:35:21;;;;;;;0.30;0.30;;;0.80;99.90;;;;;;5094306;28;20180;-74
2023/11/30 02:37:47;;;;;;;0.30;0.30;;;0.80;99.90;;;;;;5090259;28;20180;-73
2023/11/30 02:40:13;;;;;;;0.30;0.30;;;0.80;99.90;;;;;;5086235;28;20222;-73
2023/11/30 02:42:38;;;;;;;0.30;0.30;;;0.90;99.90;;;;;;5084524;28;20579;-73
2023/11/30 02:45:04;;;;;;;0.30;0.30;;;0.80;99.90;;;;;;5085889;28;20173;-73
2023/11/30 02:47:30;;;;;;;0.30;0.30;;;0.90;99.90;;;;;;5084140;28;20191;-73
2023/11/30 02:49:55;;;;;;;0.30;0.30;;;0.90;99.90;;;;;;5084439;28;20193;-73
2023/11/30 02:52:21;;;;;;;0.30;0.30;;;0.90;99.90;;;;;;5083849;28;20181;-73
2023/11/30 02:54:47;;;;;;;0.30;0.30;;;0.90;99.90;;;;;;5084267;28;20307;-73
2023/11/30 02:57:13;;;;;;;0.30;0.30;;;0.90;99.90;;;;;;5084397;28;20498;-73
2023/11/30 02:59:38;;;;;;;0.30;0.30;;;0.90;99.90;;;;;;5085249;28;20231;-74
2023/11/30 03:02:04;;;;;;;0.30;0.30;;;0.80;99.90;;;;;;5086032;28;20427;-73
2023/11/30 03:04:30;;;;;;;0.30;0.30;;;0.80;99.90;;;;;;5085370;28;20668;-73
2023/11/30 03:06:55;;;;;;;0.30;0.30;;;0.80;99.90;;;;;;5085114;28;20176;-73
2023/11/30 03:09:21;;;;;;;0.33;0.33;;;0.80;99.90;;;;;;5083886;28;20200;-73
2023/11/30 03:11:46;;;;;;;0.30;0.30;;;0.80;99.90;;;;;;5083797;28;20259;-73
2023/11/30 03:14:12;;;;;;;0.30;0.23;;;0.90;99.90;;;;;;5083901;28;20200;-73
2023/11/30 03:16:38;;;;;;;0.30;0.30;;;0.90;99.90;;;;;;5085603;28;20773;-73
2023/11/30 03:19:03;;;;;;;0.30;0.30;;;0.90;99.90;;;;;;5084830;28;20228;-74
2023/11/30 03:21:29;;;;;;;0.30;0.30;;;0.90;99.90;;;;;;5085371;28;20200;-73
2023/11/30 03:23:56;;;;;;;0.30;0.30;;;0.90;99.90;;;;;;5083859;28;20196;-73
2023/11/30 03:26:21;;;;;;;0.30;0.30;;;0.90;99.90;;;;;;5085552;28;20444;-73
2023/11/30 03:28:47;;;;;;;0.30;0.30;;;0.90;99.90;;;;;;5085566;28;20212;-73
2023/11/30 03:31:14;;;;;;;0.30;0.30;;;0.90;99.90;;;;;;5085179;28;20268;-73
2023/11/30 03:33:40;;;;;;;0.30;0.30;;;0.90;99.90;;;;;;5085193;28;20206;-73
2023/11/30 03:36:06;;;;;;;0.30;0.30;;;0.90;99.90;;;;;;5085497;28;20169;-73
2023/11/30 03:38:32;;;;;;;0.30;0.30;;;0.90;99.90;;;;;;5085072;28;20599;-73
2023/11/30 03:40:58;;;;;;;0.30;0.30;;;0.80;99.90;;;;;;5083621;28;20371;-73
2023/11/30 03:43:24;;;;;;;0.30;0.30;;;0.90;99.90;;;;;;5083817;28;20201;-73
2023/11/30 03:45:50;;;;;;;0.30;0.30;;;0.80;99.90;;;;;;5085499;28;20199;-73
2023/11/30 03:48:15;;;;;;;0.30;0.30;;;0.80;99.90;;;;;;5085086;28;20291;-74
2023/11/30 03:50:41;;;;;;;0.30;0.30;;;0.80;99.90;;;;;;5085711;28;20648;-73
2023/11/30 03:53:07;;;;;;;0.30;0.30;;;0.80;99.90;;;;;;5095229;28;20216;-73
2023/11/30 03:55:32;;;;;;;0.30;0.30;;;0.80;99.90;;;;;;5085467;28;20176;-74
2023/11/30 03:57:58;;;;;;;0.30;0.30;;;0.80;99.90;;;;;;5082652;28;20193;-73
2023/11/30 04:00:24;;;;;;;0.30;0.30;;;0.80;99.90;;;;;;5083320;28;20662;-73
2023/11/30 04:02:49;;;;;;;0.30;0.30;;;0.90;99.90;;;;;;5083657;28;20264;-73
2023/11/30 04:05:15;;;;;;;0.30;0.30;;;0.90;99.90;;;;;;5086681;28;20173;-72
2023/11/30 04:07:41;;;;;;;0.30;0.30;;;1.00;99.90;;;;;;5087033;28;20681;-73
2023/11/30 04:10:07;;;;;;;0.30;0.20;;;1.00;99.90;;;;;;5087502;28;20267;-73
2023/11/30 04:12:34;;;;;;;0.30;0.30;;;1.10;99.90;;;;;;5108084;28;20255;-73
2023/11/30 04:15:00;;;;;;;0.30;0.30;;;1.10;99.90;;;;;;5109438;28;20266;-73
2023/11/30 04:17:26;;;;;;;0.30;0.30;;;1.20;99.90;;;;;;5107608;28;20258;-73
2023/11/30 04:19:51;;;;;;;0.30;0.30;;;1.20;99.90;;;;;;5108806;28;20231;-73
2023/11/30 04:22:17;;;;;;;0.30;0.30;;;1.20;99.90;;;;;;5105367;28;20290;-74
2023/11/30 04:24:43;;;;;;;0.30;0.30;;;1.30;99.90;;;;;;5088508;28;20197;-72
2023/11/30 04:27:08;;;;;;;0.30;0.30;;;1.30;99.90;;;;;;5086927;28;20934;-73
2023/11/30 04:29:35;;;;;;;0.30;0.30;;;1.30;99.90;;;;;;5087296;28;20562;-74
2023/11/30 04:32:01;;;;;;;0.30;0.30;;;1.40;99.90;;;;;;5102117;28;20187;-74
2023/11/30 04:34:27;;;;;;;0.30;0.30;;;1.40;99.90;;;;;;5106856;28;20215;-73
2023/11/30 04:36:53;;;;;;;0.30;0.30;;;1.40;99.90;;;;;;5107311;28;20584;-73
2023/11/30 04:39:20;;;;;;;0.30;0.30;;;1.50;99.90;;;;;;5110714;28;20306;-73
2023/11/30 04:41:46;;;;;;;0.30;0.30;;;1.40;99.90;;;;;;5106419;28;20200;-73
2023/11/30 04:44:13;;;;;;;0.30;0.30;;;1.40;99.90;;;;;;5097049;28;20295;-73
2023/11/30 04:46:38;;;;;;;0.30;0.30;;;1.40;99.90;;;;;;5094430;28;20673;-73
2023/11/30 04:49:04;;;;;;;0.30;0.30;;;1.50;99.90;;;;;;5093790;28;20228;-73
2023/11/30 04:51:30;;;;;;;0.30;0.30;;;1.50;99.90;;;;;;5105073;28;20194;-73
2023/11/30 04:53:56;;;;;;;0.30;0.30;;;1.50;99.90;;;;;;5113829;28;20203;-73
2023/11/30 04:56:22;;;;;;;0.30;0.30;;;1.50;99.90;;;;;;5114300;28;20163;-74
2023/11/30 04:58:48;;;;;;;0.30;0.30;;;1.50;99.90;;;;;;5111655;28;20207;-74
2023/11/30 05:01:13;;;;;;;0.30;0.30;;;1.50;99.90;;;;;;5112155;27;20577;-73
2023/11/30 05:03:39;;;;;;;0.30;0.30;;;1.60;99.90;;;;;;5114021;28;20184;-73
2023/11/30 05:06:05;;;;;;;0.30;0.30;;;1.60;99.90;;;;;;5114278;28;20675;-73
2023/11/30 05:08:30;;;;;;;0.30;0.30;;;1.50;99.90;;;;;;5113856;28;20184;-73
2023/11/30 05:10:57;;;;;;;0.30;0.30;;;1.50;99.90;;;;;;5128442;27;20184;-73
2023/11/30 05:13:23;;;;;;;0.30;0.30;;;1.60;99.90;;;;;;5128994;27;20196;-74
2023/11/30 05:15:48;;;;;;;0.30;0.27;;;1.60;99.90;;;;;;5113310;28;20698;-73
2023/11/30 05:18:14;;;;;;;0.30;0.30;;;1.60;99.90;;;;;;5127928;27;20377;-73
2023/11/30 05:20:40;;;;;;;0.30;0.30;;;1.70;99.90;;;;;;5129378;27;20311;-73
2023/11/30 05:23:06;;;;;;;0.30;0.30;;;1.60;99.90;;;;;;5107647;28;20195;-73
2023/11/30 05:25:32;;;;;;;0.30;0.30;;;1.70;99.90;;;;;;5106076;28;20176;-73
2023/11/30 05:27:58;;;;;;;0.30;0.30;;;1.70;99.90;;;;;;5106874;28;20268;-73
2023/11/30 05:30:25;;;;;;;0.30;0.30;;;1.70;99.90;;;;;;5103102;28;20218;-73
2023/11/30 05:32:51;;;;;;;0.30;0.30;;;1.70;99.90;;;;;;5101654;28;20184;-73
2023/11/30 05:35:17;;;;;;;0.30;0.30;;;1.70;99.90;;;;;;5089682;28;20660;-73
2023/11/30 05:37:42;;;;;;;0.30;0.30;;;1.70;99.90;;;;;;5109990;27;20521;-74
2023/11/30 05:40:09;;;;;;;0.30;0.30;;;1.70;99.90;;;;;;5085557;28;20208;-75
2023/11/30 05:42:35;;;;;;;0.30;0.30;;;1.70;99.90;;;;;;5083694;28;20179;-75
2023/11/30 05:45:00;;;;;;;0.30;0.30;;;1.70;99.90;;;;;;5093281;28;20188;-76
2023/11/30 05:47:26;;;;;;;0.30;0.30;;;1.80;99.90;;;;;;5105050;28;20252;-75
2023/11/30 05:49:54;;;;;;;0.30;0.30;;;1.80;99.90;;;;;;5106630;28;20207;-75
2023/11/30 05:52:20;;;;;;;0.30;0.30;;;1.80;99.90;;;;;;5105190;28;20175;-75
2023/11/30 05:54:45;;;;;;;0.30;0.30;;;1.80;99.90;;;;;;5106329;27;20208;-75
2023/11/30 05:57:11;;;;;;;0.30;0.30;;;1.80;99.90;;;;;;5105088;28;20752;-75
2023/11/30 05:59:37;;;;;;;0.30;0.30;;;1.80;99.90;;;;;;5105533;28;20458;-75
2023/11/30 06:02:05;;;;;;;0.30;0.30;;;1.80;99.90;;;;;;5104587;28;20411;-76
2023/11/30 06:04:31;;;;;;;0.30;0.30;;;1.80;99.90;;;;;;5104427;28;20437;-75
2023/11/30 06:06:57;;;;;;;0.30;0.30;;;1.80;99.90;;;;;;5103566;28;20183;-73
2023/11/30 06:09:22;;;;;;;0.30;0.30;;;1.80;99.90;;;;;;5100510;28;20776;-72
2023/11/30 06:11:50;;;;;;;0.30;0.30;;;1.90;99.90;;;;;;5117995;27;20225;-73
2023/11/30 06:14:16;;;;;;;0.30;0.30;;;1.90;99.90;;;;;;5097044;28;20207;-72
2023/11/30 06:16:42;;;;;;;0.30;0.30;;;1.90;99.90;;;;;;5085625;28;20180;-72
2023/11/30 06:19:07;;;;;;;0.30;0.30;;;1.90;99.90;;;;;;5100512;28;20243;-72
2023/11/30 06:21:33;;;;;;;0.30;0.30;;;2.00;99.90;;;;;;5104084;28;20386;-73
2023/11/30 06:23:58;;;;;;;0.30;0.30;;;2.00;99.90;;;;;;5103414;28;20861;-73
2023/11/30 06:26:24;;;;;;;0.30;0.30;;;2.10;99.90;;;;;;5105213;28;20530;-72
2023/11/30 06:28:50;;;;;;;0.30;0.30;;;2.10;99.90;;;;;;5103491;28;20232;-75
2023/11/30 06:31:16;;;;;;;0.30;0.30;;;2.20;99.90;;;;;;5105365;28;20180;-75
2023/11/30 06:33:42;;;;;;;0.30;0.30;;;2.20;99.90;;;;;;5100522;28;20199;-76
2023/11/30 06:36:08;;;;;;;0.30;0.30;;;2.20;99.90;;;;;;5103765;28;20405;-75
2023/11/30 06:38:34;;;;;;;0.30;0.30;;;2.20;99.90;;;;;;5094554;28;20200;-73
2023/11/30 06:41:00;;;;;;;0.30;0.30;;;2.20;99.90;;;;;;5098742;28;20684;-73
2023/11/30 06:43:26;;;;;;;0.30;0.30;;;2.20;99.90;;;;;;5101445;28;20683;-73
2023/11/30 06:45:52;;;;;;;0.30;0.20;;;2.30;99.90;;;;;;5104044;28;20215;-73
2023/11/30 06:48:18;;;;;;;0.30;0.30;;;2.30;99.90;;;;;;5094809;28;20288;-74
2023/11/30 06:50:43;;;;;;;0.30;0.30;;;2.30;99.90;;;;;;5099793;28;21142;-74
2023/11/30 06:53:09;;;;;;;0.30;0.30;;;2.30;99.90;;;;;;5099102;28;20321;-73
2023/11/30 06:55:35;;;;;;;0.30;0.30;;;2.40;99.90;;;;;;5093976;28;20485;-73
2023/11/30 06:58:00;;;;;;;0.30;0.30;;;2.40;99.90;;;;;;5097272;28;20962;-74
2023/11/30 07:00:26;;;;;;;0.30;0.30;;;2.40;99.90;;;;;;5122425;27;20223;-73
2023/11/30 07:02:53;;;;;;;0.30;0.30;;;2.50;99.90;;;;;;5099065;28;20233;-74
2023/11/30 07:05:20;;;;;;;0.30;0.30;;;2.50;99.90;;;;;;5123952;27;20514;-73
2023/11/30 07:07:46;;;;;;;0.30;0.30;;;2.50;99.90;;;;;;5096129;28;20459;-73
2023/11/30 07:10:12;;;;;;;0.30;0.30;;;2.50;99.90;;;;;;5096480;28;20395;-73
2023/11/30 07:12:39;;;;;;;0.30;0.20;;;2.50;99.90;;;;;;5100969;28;21091;-73
2023/11/30 07:15:07;;;;;;;0.30;0.30;;;2.50;99.90;;;;;;5098070;28;20396;-73
2023/11/30 07:17:33;;;;;;;0.30;0.30;;;2.50;99.90;;;;;;5097970;28;20168;-74
2023/11/30 07:19:58;;;;;;;0.30;0.30;;;2.60;99.90;;;;;;5099682;28;20265;-74
2023/11/30 07:22:24;;;;;;;0.30;0.30;;;2.60;99.90;;;;;;5100693;28;20500;-74
2023/11/30 07:24:51;;;;;;;0.30;0.30;;;2.70;99.90;;;;;;5099978;28;20962;-73
2023/11/30 07:27:17;;;;;;;0.30;0.30;;;2.80;99.90;;;;;;5101485;28;20168;-74
2023/11/30 07:29:43;;;;;;;0.30;0.30;;;2.90;99.90;;;;;;5101314;28;20219;-73
2023/11/30 07:32:09;;;;;;;0.30;0.30;;;2.90;99.90;;;;;;5101625;28;20176;-73
2023/11/30 07:34:35;;;;;;;0.30;0.30;;;2.90;99.90;;;;;;5100166;28;21009;-74
2023/11/30 07:37:01;;;;;;;0.30;0.30;;;2.90;99.90;;;;;;5099421;28;20180;-73
2023/11/30 07:39:27;;;;;;;0.30;0.30;;;2.90;99.90;;;;;;5089939;28;20391;-73
2023/11/30 07:41:53;;;;;;;0.30;0.30;;;2.90;99.90;;;;;;5119950;27;20233;-73
2023/11/30 07:44:19;;;;;;;0.30;0.30;;;2.80;99.90;;;;;;5118886;27;20474;-73
2023/11/30 07:46:45;;;;;;;0.30;0.30;;;2.80;99.90;;;;;;5103684;28;20184;-73
2023/11/30 07:49:11;;;;;;;0.30;0.30;;;2.80;99.90;;;;;;5099097;28;20231;-74
2023/11/30 07:51:37;;;;;;;0.30;0.30;;;2.90;99.90;;;;;;5103224;28;20409;-73
2023/11/30 07:54:03;;;;;;;0.30;0.30;;;2.90;99.90;;;;;;5103391;28;20731;-75
2023/11/30 07:56:28;;;;;;;0.30;0.30;;;2.90;99.90;;;;;;5104228;28;20184;-73
2023/11/30 07:58:54;;;;;;;0.30;0.30;;;2.90;99.90;;;;;;5119942;27;20228;-73
2023/11/30 08:01:20;;;;;;;0.30;0.30;;;2.90;99.90;;;;;;5103873;27;20488;-73
2023/11/30 08:03:46;;;;;;;0.30;0.30;;;2.90;99.90;;;;;;5107438;27;20335;-74
2023/11/30 08:06:12;;;;;;;0.30;0.30;;;3.00;99.90;;;;;;5109803;27;20191;-75
2023/11/30 08:08:38;;;;;;;0.30;0.30;;;2.90;99.90;;;;;;5104192;27;20769;-73
2023/11/30 08:11:04;;;;;;;0.30;0.30;;;2.90;99.90;;;;;;5107675;27;20207;-74
2023/11/30 08:13:32;;;;;;;0.30;0.30;;;3.00;99.90;;;;;;5109156;27;20222;-74
2023/11/30 08:15:58;;;;;;;0.30;0.30;;;3.00;99.90;;;;;;5104870;27;20188;-73
2023/11/30 08:18:24;;;;;;;0.30;0.30;;;2.90;99.90;;;;;;5109260;27;20227;-72
2023/11/30 08:20:52;;;;;;;0.30;0.30;;;2.90;99.90;;;;;;5107159;27;20219;-73
2023/11/30 08:23:18;;;;;;;0.30;0.20;;;3.00;99.90;;;;;;5095784;27;20200;-73
2023/11/30 08:25:44;;;;;;;0.30;0.30;;;3.00;99.90;;;;;;5101730;27;20176;-75
2023/11/30 08:28:10;;;;;;;0.30;0.30;;;3.00;99.90;;;;;;5116404;27;20210;-73
2023/11/30 08:30:36;;;;;;;0.30;0.30;;;3.10;99.90;;;;;;5109995;27;20183;-73
2023/11/30 08:33:04;;;;;;;0.30;0.30;;;3.10;99.90;;;;;;5108054;27;20730;-73
2023/11/30 08:35:29;;;;;;;0.30;0.30;;;3.10;99.90;;;;;;5100861;27;20478;-73
2023/11/30 08:37:55;;;;;;;0.30;0.20;;;3.10;99.90;;;;;;5103395;27;20540;-74
2023/11/30 08:40:21;;;;;;;0.30;0.20;;;3.10;99.90;;;;;;5096254;27;20253;-73
2023/11/30 08:42:47;;;;;;;0.30;0.30;;;3.20;99.90;;;;;;5099343;27;20259;-73
2023/11/30 08:45:12;;;;;;;0.30;0.30;;;3.20;99.90;;;;;;5114195;27;20522;-74
2023/11/30 08:47:38;;;;;;;0.30;0.30;;;3.30;99.90;;;;;;5109594;27;20183;-73
2023/11/30 08:50:04;;;;;;;0.30;0.30;;;3.40;99.90;;;;;;5129803;27;20184;-73
2023/11/30 08:52:30;;;;;;;0.30;0.20;;;3.40;99.90;;;;;;5106783;27;20331;-74
2023/11/30 08:54:55;;;;;;;0.30;0.30;;;3.40;99.90;;;;;;5113101;27;20304;-76
2023/11/30 08:57:21;;;;;;;0.30;0.30;;;3.50;99.90;;;;;;5109467;27;20820;-74
2023/11/30 08:59:49;;;;;;;0.30;0.30;;;3.40;99.90;;;;;;5106701;27;20223;-74
2023/11/30 09:02:14;;;;;;;0.30;0.30;;;3.50;99.90;;;;;;5103341;27;20370;-74
2023/11/30 09:04:40;;;;;;;0.30;0.30;;;3.50;99.90;;;;;;5105458;27;20307;-74
2023/11/30 09:07:06;;;;;;;0.30;0.30;;;3.50;99.90;;;;;;5109529;27;20394;-74
2023/11/30 09:09:33;;;;;;;0.30;0.30;;;3.60;99.90;;;;;;5107513;27;20245;-74
2023/11/30 09:11:58;;;;;;;0.30;0.30;;;3.60;99.90;;;;;;5111925;27;20687;-73
2023/11/30 09:14:24;;;;;;;0.30;0.30;;;3.70;99.90;;;;;;5128838;27;20228;-74
2023/11/30 09:16:49;;;;;;;0.30;0.30;;;3.70;99.90;;;;;;5105247;27;20180;-74
2023/11/30 09:19:15;;;;;;;0.30;0.20;;;3.70;99.90;;;;;;5108907;27;20262;-74
2023/11/30 09:21:41;;;;;;;0.30;0.30;;;3.70;99.90;;;;;;5113879;27;20228;-74
2023/11/30 09:24:07;;;;;;;0.30;0.30;;;3.80;99.90;;;;;;5111009;27;20199;-73
2023/11/30 09:26:32;;;;;;;0.30;0.30;;;3.80;99.90;;;;;;5099262;27;20604;-74
2023/11/30 09:28:58;;;;;;;0.30;0.20;;;3.80;99.90;;;;;;5101021;27;21063;-74
2023/11/30 09:31:24;;;;;;;0.30;0.30;;;3.80;99.90;;;;;;5098275;27;20764;-74
2023/11/30 09:33:49;;;;;;;0.30;0.20;;;3.80;99.90;;;;;;5101333;27;20275;-74
2023/11/30 09:36:15;;;;;;;0.30;0.30;;;3.80;99.90;;;;;;5109832;27;20225;-74
2023/11/30 09:38:41;;;;;;;0.30;0.30;;;3.80;99.90;;;;;;5097972;27;20191;-74
2023/11/30 09:41:08;;;;;;;0.30;0.30;;;3.80;99.90;;;;;;5092290;27;20187;-74
2023/11/30 09:43:35;;;;;;;0.30;0.20;;;3.80;99.90;;;;;;5100502;27;20195;-74
2023/11/30 09:46:00;;;;;;;0.30;0.20;;;3.90;99.90;;;;;;5100014;27;20716;-74
2023/11/30 09:48:26;;;;;;;0.30;0.20;;;3.90;99.90;;;;;;5102421;27;20207;-74
2023/11/30 09:50:52;;;;;;;0.30;0.30;;;4.00;99.90;;;;;;5099285;27;20223;-74
2023/11/30 09:53:17;;;;;;;0.30;0.30;;;4.00;99.90;;;;;;5091649;27;20512;-74
2023/11/30 09:55:43;;;;;;;0.30;0.20;;;4.00;99.90;;;;;;5095290;27;20660;-74
2023/11/30 09:58:09;;;;;;;0.30;0.30;;;4.00;99.90;;;;;;5100236;27;20224;-74
2023/11/30 10:00:35;;;;;;;0.30;0.20;;;4.10;99.90;;;;;;5101017;27;21008;-74
2023/11/30 10:03:04;;;;;;;0.30;0.30;;;4.10;99.90;;;;;;5098775;27;20278;-74
2023/11/30 10:05:29;;;;;;;0.30;0.20;;;4.30;99.90;;;;;;5127630;27;20430;-74
2023/11/30 10:07:58;;;;;;;0.30;0.20;;;4.30;99.90;;;;;;5099041;27;20203;-74
2023/11/30 10:10:24;;;;;;;0.30;0.30;;;4.40;99.90;;;;;;5112343;27;20315;-74
2023/11/30 10:12:50;;;;;;;0.30;0.20;;;4.50;99.90;;;;;;5098446;27;20572;-74
2023/11/30 10:15:16;;;;;;;0.30;0.20;;;4.50;99.90;;;;;;5102347;27;20180;-74
2023/11/30 10:17:42;;;;;;;0.30;0.20;;;4.50;99.90;;;;;;5104505;27;20410;-74
2023/11/30 10:20:11;;;;;;;0.30;0.30;;;4.60;99.90;;;;;;5111552;27;20233;-74
2023/11/30 10:22:40;;;;;;;0.30;0.20;;;4.70;99.90;;;;;;5102712;27;20179;-74
2023/11/30 10:25:09;;;;;;;0.30;0.20;;;4.70;99.90;;;;;;5103473;27;20214;-74
2023/11/30 10:27:36;;;;;;;0.30;0.20;;;4.70;99.90;;;;;;5100725;27;20888;-74
2023/11/30 10:30:06;;;;;;;0.30;0.20;;;4.60;99.90;;;;;;5102250;27;20280;-74
2023/11/30 10:32:39;;;;;;;0.30;0.30;;;4.60;99.90;;;;;;5104557;27;20182;-74
2023/11/30 10:35:06;;;;;;;0.30;0.20;;;4.60;99.90;;;;;;5100153;27;20180;-74
2023/11/30 10:37:42;;;;;;;0.30;0.20;;;4.60;99.90;;;;;;5110921;27;20263;-74
2023/11/30 10:40:11;;;;;;;0.30;0.20;;;4.60;99.90;;;;;;5115120;27;20199;-74
2023/11/30 10:42:36;;;;;;;0.30;0.20;;;4.70;99.90;;;;;;5104069;27;20184;-74
2023/11/30 10:45:04;;;;;;;0.30;0.20;;;4.70;99.90;;;;;;5108896;27;20180;-74
2023/11/30 10:47:30;;;;;;;0.30;0.30;;;4.70;99.90;;;;;;5103438;28;20403;-74
2023/11/30 10:49:59;;;;;;;0.30;0.20;;;4.70;99.90;;;;;;5104316;27;20218;-74
2023/11/30 10:52:30;;;;;;;0.30;0.20;;;4.70;99.90;;;;;;5110230;27;20183;-74
2023/11/30 10:55:07;;;;;;;0.30;0.20;;;4.70;99.90;;;;;;5102923;27;20473;-74
2023/11/30 10:57:32;;;;;;;0.30;0.20;;;4.70;99.90;;;;;;5100887;28;20704;-74
2023/11/30 10:59:58;;;;;;;0.30;0.20;;;4.70;99.90;;;;;;5098635;28;20301;-73
2023/11/30 11:02:34;;;;;;;0.30;0.20;;;4.80;99.90;;;;;;5095273;28;20184;-74
2023/11/30 11:05:00;;;;;;;0.30;0.20;;;4.80;99.90;;;;;;5104566;28;20477;-74
2023/11/30 11:07:26;;;;;;;0.30;0.30;;;4.90;99.90;;;;;;5096994;28;20195;-74
2023/11/30 11:09:54;;;;;;;0.30;0.20;;;4.80;99.90;;;;;;5119159;27;20196;-74
2023/11/30 11:12:33;;;;;;;0.30;0.30;;;4.80;99.90;;;;;;5105099;28;20186;-74
2023/11/30 11:15:08;;;;;;;0.30;0.30;;;4.80;99.90;;;;;;5100699;27;20490;-74
2023/11/30 11:17:45;;;;;;;0.30;0.30;;;4.80;99.90;;;;;;5099613;27;20248;-74
2023/11/30 11:20:19;;;;;;;0.30;0.20;;;4.80;99.90;;;;;;5095027;27;20587;-73
2023/11/30 11:22:45;;;;;;;0.30;0.20;;;4.80;99.90;;;;;;5101377;27;20663;-73
2023/11/30 11:25:11;;;;;;;0.30;0.30;;;4.80;99.90;;;;;;5102152;27;20179;-74
2023/11/30 11:27:37;;;;;;;0.30;0.30;;;4.80;99.90;;;;;;5106271;27;20546;-74
2023/11/30 11:30:07;;;;;;;0.30;0.20;;;4.80;99.90;;;;;;5108667;27;20309;-74
2023/11/30 11:32:34;;;;;;;0.30;0.20;;;4.80;99.90;;;;;;5108297;27;20479;-74
2023/11/30 11:35:00;;;;;;;0.30;0.20;;;4.90;99.90;;;;;;5105593;27;20551;-74
2023/11/30 11:37:26;;;;;;;0.30;0.20;;;4.90;99.90;;;;;;5098694;27;20184;-74
2023/11/30 11:39:52;;;;;;;0.30;0.30;;;4.90;99.90;;;;;;5103004;27;20809;-74
2023/11/30 11:42:21;;;;;;;0.30;0.20;;;4.90;99.90;;;;;;5104084;27;20188;-75
2023/11/30 11:44:49;;;;;;;0.30;0.20;;;4.90;99.90;;;;;;5105220;27;20352;-75
2023/11/30 11:47:15;;;;;;;0.30;0.20;;;5.00;99.90;;;;;;5102318;27;20278;-75
2023/11/30 11:49:41;;;;;;;0.30;0.20;;;4.90;99.90;;;;;;5099380;27;20822;-75
2023/11/30 11:52:06;;;;;;;0.30;0.20;;;5.00;99.90;;;;;;5095020;27;20271;-75
2023/11/30 11:54:32;;;;;;;0.30;0.20;;;5.00;99.90;;;;;;5098685;27;20234;-75
2023/11/30 11:56:58;;;;;;;0.30;0.20;;;5.10;99.90;;;;;;5098900;27;20188;-75
2023/11/30 11:59:26;;;;;;;0.30;0.20;;;5.10;99.90;;;;;;5098677;27;20228;-74
2023/11/30 12:01:53;;;;;;;0.30;0.20;;;5.20;99.90;;;;;;5097463;27;20184;-75
2023/11/30 12:04:26;;;;;;;0.30;0.20;;;5.20;99.90;;;;;;5096971;27;20196;-75
2023/11/30 12:06:53;;;;;;;0.30;0.20;;;5.30;99.90;;;;;;5096580;27;20216;-75
2023/11/30 12:09:19;;;;;;;0.30;0.20;;;5.30;99.90;;;;;;5100770;27;20711;-75
2023/11/30 12:11:44;;;;;;;0.30;0.20;;;5.30;99.90;;;;;;5102559;27;20671;-75
2023/11/30 12:14:10;;;;;;;0.30;0.20;;;5.30;99.90;;;;;;5100412;27;20294;-75
2023/11/30 12:16:36;;;;;;;0.30;0.20;;;5.40;99.90;;;;;;5085880;27;21182;-75
2023/11/30 12:19:02;;;;;;;0.30;0.30;;;5.40;99.90;;;;;;5094108;27;20231;-73
2023/11/30 12:21:28;;;;;;;0.30;0.20;;;5.50;99.90;;;;;;5100935;27;20179;-74
2023/11/30 12:23:53;;;;;;;0.30;0.20;;;5.50;99.90;;;;;;5102271;27;20747;-74
2023/11/30 12:26:19;;;;;;;0.30;0.20;;;5.50;99.90;;;;;;5091007;27;20275;-74
2023/11/30 12:28:45;;;;;;;0.30;0.20;;;5.50;99.90;;;;;;5096921;27;20778;-74
2023/11/30 12:31:10;;;;;;;0.30;0.20;;;5.60;99.90;;;;;;5100830;27;20210;-74
2023/11/30 12:33:36;;;;;;;0.30;0.20;;;5.60;99.90;;;;;;5116934;27;20198;-74
2023/11/30 12:36:02;;;;;;;0.30;0.20;;;5.70;99.90;;;;;;5097320;27;20227;-74
2023/11/30 12:38:30;;;;;;;0.30;0.30;;;5.70;99.90;;;;;;5095292;27;20204;-74
2023/11/30 12:40:56;;;;;;;0.30;0.20;;;5.70;99.90;;;;;;5094967;27;20230;-74
2023/11/30 12:43:21;;;;;;;0.30;0.20;;;5.70;99.90;;;;;;5095995;27;20187;-74
2023/11/30 12:45:48;;;;;;;0.30;0.20;;;5.70;99.90;;;;;;5095889;27;20483;-74
2023/11/30 12:48:14;;;;;;;0.30;0.20;;;5.70;99.90;;;;;;5106577;27;20199;-74
2023/11/30 12:50:41;;;;;;;0.30;0.20;;;5.70;99.90;;;;;;5097765;27;20344;-75
2023/11/30 12:53:06;;;;;;;0.30;0.20;;;5.70;99.90;;;;;;5101406;27;20328;-75